sensor_id;sensor_type;location;lat;lon;timestamp;P1;durP1;ratioP1;P2;durP2;ratioP2
54641;SDS011;40536;53.194;5.728;2023-11-25T00:02:02;18.77;;;8.77;;
54641;SDS011;40536;53.194;5.728;2023-11-25T00:04:28;23.88;;;8.60;;
54641;SDS011;40536;53.194;5.728;2023-11-25T00:06:53;20.70;;;9.43;;
54641;SDS011;40536;53.194;5.728;2023-11-25T00:09:21;17.23;;;9.73;;
54641;SDS011;40536;53.194;5.728;2023-11-25T00:11:47;21.17;;;13.77;;
54641;SDS011;40536;53.194;5.728;2023-11-25T00:14:14;19.48;;;11.30;;
54641;SDS011;40536;53.194;5.728;2023-11-25T00:16:39;19.08;;;9.98;;
54641;SDS011;40536;53.194;5.728;2023-11-25T00:19:06;25.27;;;9.88;;
54641;SDS011;40536;53.194;5.728;2023-11-25T00:21:31;13.55;;;8.52;;
54641;SDS011;40536;53.194;5.728;2023-11-25T00:23:57;17.80;;;9.95;;
54641;SDS011;40536;53.194;5.728;2023-11-25T00:26:22;14.25;;;9.50;;
54641;SDS011;40536;53.194;5.728;2023-11-25T00:28:50;19.70;;;8.77;;
54641;SDS011;40536;53.194;5.728;2023-11-25T00:31:16;19.92;;;8.80;;
54641;SDS011;40536;53.194;5.728;2023-11-25T00:33:42;12.38;;;8.98;;
54641;SDS011;40536;53.194;5.728;2023-11-25T00:36:07;21.38;;;10.27;;
54641;SDS011;40536;53.194;5.728;2023-11-25T00:38:33;16.25;;;10.38;;
54641;SDS011;40536;53.194;5.728;2023-11-25T00:40:59;10.50;;;8.88;;
54641;SDS011;40536;53.194;5.728;2023-11-25T00:43:24;11.27;;;8.15;;
54641;SDS011;40536;53.194;5.728;2023-11-25T00:45:50;13.13;;;8.65;;
54641;SDS011;40536;53.194;5.728;2023-11-25T00:48:16;18.42;;;9.45;;
54641;SDS011;40536;53.194;5.728;2023-11-25T00:50:42;19.25;;;11.07;;
54641;SDS011;40536;53.194;5.728;2023-11-25T00:53:07;16.02;;;8.40;;
54641;SDS011;40536;53.194;5.728;2023-11-25T00:55:33;21.55;;;8.65;;
54641;SDS011;40536;53.194;5.728;2023-11-25T00:57:58;17.23;;;8.27;;
54641;SDS011;40536;53.194;5.728;2023-11-25T01:00:24;13.70;;;10.13;;
54641;SDS011;40536;53.194;5.728;2023-11-25T01:02:51;19.25;;;10.48;;
54641;SDS011;40536;53.194;5.728;2023-11-25T01:05:17;24.88;;;16.58;;
54641;SDS011;40536;53.194;5.728;2023-11-25T01:07:43;18.13;;;8.38;;
54641;SDS011;40536;53.194;5.728;2023-11-25T01:10:13;14.63;;;7.90;;
54641;SDS011;40536;53.194;5.728;2023-11-25T01:12:38;15.82;;;7.10;;
54641;SDS011;40536;53.194;5.728;2023-11-25T01:15:04;13.75;;;7.93;;
54641;SDS011;40536;53.194;5.728;2023-11-25T01:17:32;16.40;;;8.98;;
54641;SDS011;40536;53.194;5.728;2023-11-25T01:19:58;14.20;;;8.00;;
54641;SDS011;40536;53.194;5.728;2023-11-25T01:22:24;11.48;;;7.40;;
54641;SDS011;40536;53.194;5.728;2023-11-25T01:24:51;24.30;;;9.82;;
54641;SDS011;40536;53.194;5.728;2023-11-25T01:27:17;28.25;;;10.15;;
54641;SDS011;40536;53.194;5.728;2023-11-25T01:29:42;18.85;;;9.77;;
54641;SDS011;40536;53.194;5.728;2023-11-25T01:32:09;19.80;;;9.57;;
54641;SDS011;40536;53.194;5.728;2023-11-25T01:34:34;18.75;;;10.13;;
54641;SDS011;40536;53.194;5.728;2023-11-25T01:37:00;22.63;;;9.93;;
54641;SDS011;40536;53.194;5.728;2023-11-25T01:39:26;14.13;;;9.10;;
54641;SDS011;40536;53.194;5.728;2023-11-25T01:41:51;21.33;;;15.63;;
54641;SDS011;40536;53.194;5.728;2023-11-25T01:44:17;24.50;;;10.32;;
54641;SDS011;40536;53.194;5.728;2023-11-25T01:46:43;20.60;;;10.88;;
54641;SDS011;40536;53.194;5.728;2023-11-25T01:49:09;18.27;;;8.38;;
54641;SDS011;40536;53.194;5.728;2023-11-25T01:51:38;18.52;;;9.10;;
54641;SDS011;40536;53.194;5.728;2023-11-25T01:54:09;13.75;;;8.50;;
54641;SDS011;40536;53.194;5.728;2023-11-25T01:56:45;13.45;;;9.82;;
54641;SDS011;40536;53.194;5.728;2023-11-25T01:59:15;27.83;;;12.30;;
54641;SDS011;40536;53.194;5.728;2023-11-25T02:01:43;19.70;;;10.68;;
54641;SDS011;40536;53.194;5.728;2023-11-25T02:04:09;19.70;;;10.80;;
54641;SDS011;40536;53.194;5.728;2023-11-25T02:06:35;15.77;;;11.15;;
54641;SDS011;40536;53.194;5.728;2023-11-25T02:09:01;23.63;;;18.58;;
54641;SDS011;40536;53.194;5.728;2023-11-25T02:11:29;20.23;;;12.23;;
54641;SDS011;40536;53.194;5.728;2023-11-25T02:13:54;16.08;;;11.57;;
54641;SDS011;40536;53.194;5.728;2023-11-25T02:16:20;18.25;;;13.02;;
54641;SDS011;40536;53.194;5.728;2023-11-25T02:18:46;18.65;;;12.90;;
54641;SDS011;40536;53.194;5.728;2023-11-25T02:21:12;22.50;;;19.50;;
54641;SDS011;40536;53.194;5.728;2023-11-25T02:23:38;15.38;;;13.95;;
54641;SDS011;40536;53.194;5.728;2023-11-25T02:26:04;13.60;;;11.35;;
54641;SDS011;40536;53.194;5.728;2023-11-25T02:28:30;11.10;;;10.18;;
54641;SDS011;40536;53.194;5.728;2023-11-25T02:30:56;10.70;;;9.90;;
54641;SDS011;40536;53.194;5.728;2023-11-25T02:33:22;9.13;;;8.23;;
54641;SDS011;40536;53.194;5.728;2023-11-25T02:35:47;17.30;;;8.45;;
54641;SDS011;40536;53.194;5.728;2023-11-25T02:38:14;8.80;;;7.90;;
54641;SDS011;40536;53.194;5.728;2023-11-25T02:40:43;14.05;;;9.48;;
54641;SDS011;40536;53.194;5.728;2023-11-25T02:43:10;9.75;;;8.63;;
54641;SDS011;40536;53.194;5.728;2023-11-25T02:45:36;17.23;;;9.23;;
54641;SDS011;40536;53.194;5.728;2023-11-25T02:48:03;13.85;;;9.52;;
54641;SDS011;40536;53.194;5.728;2023-11-25T02:50:30;14.48;;;9.65;;
54641;SDS011;40536;53.194;5.728;2023-11-25T02:52:56;12.88;;;9.45;;
54641;SDS011;40536;53.194;5.728;2023-11-25T02:55:21;18.75;;;17.15;;
54641;SDS011;40536;53.194;5.728;2023-11-25T02:57:47;121.55;;;115.65;;
54641;SDS011;40536;53.194;5.728;2023-11-25T03:00:14;12.52;;;11.63;;
54641;SDS011;40536;53.194;5.728;2023-11-25T03:02:58;9.32;;;8.63;;
54641;SDS011;40536;53.194;5.728;2023-11-25T03:05:32;10.00;;;9.07;;
54641;SDS011;40536;53.194;5.728;2023-11-25T03:08:07;9.88;;;9.07;;
54641;SDS011;40536;53.194;5.728;2023-11-25T03:10:38;10.63;;;9.68;;
54641;SDS011;40536;53.194;5.728;2023-11-25T03:13:10;16.20;;;14.93;;
54641;SDS011;40536;53.194;5.728;2023-11-25T03:15:36;11.50;;;10.30;;
54641;SDS011;40536;53.194;5.728;2023-11-25T03:18:03;18.40;;;17.00;;
54641;SDS011;40536;53.194;5.728;2023-11-25T03:20:31;35.75;;;33.00;;
54641;SDS011;40536;53.194;5.728;2023-11-25T03:22:58;40.78;;;37.88;;
54641;SDS011;40536;53.194;5.728;2023-11-25T03:25:24;60.58;;;57.65;;
54641;SDS011;40536;53.194;5.728;2023-11-25T03:27:52;105.95;;;101.13;;
54641;SDS011;40536;53.194;5.728;2023-11-25T03:30:21;137.75;;;130.98;;
54641;SDS011;40536;53.194;5.728;2023-11-25T03:32:48;127.03;;;120.82;;
54641;SDS011;40536;53.194;5.728;2023-11-25T03:35:14;157.88;;;150.85;;
54641;SDS011;40536;53.194;5.728;2023-11-25T03:37:40;152.35;;;145.43;;
54641;SDS011;40536;53.194;5.728;2023-11-25T03:40:06;154.48;;;146.98;;
54641;SDS011;40536;53.194;5.728;2023-11-25T03:42:33;147.57;;;140.57;;
54641;SDS011;40536;53.194;5.728;2023-11-25T03:45:00;99.13;;;94.82;;
54641;SDS011;40536;53.194;5.728;2023-11-25T03:47:26;123.25;;;117.75;;
54641;SDS011;40536;53.194;5.728;2023-11-25T03:49:54;138.02;;;131.43;;
54641;SDS011;40536;53.194;5.728;2023-11-25T03:52:20;160.13;;;152.30;;
54641;SDS011;40536;53.194;5.728;2023-11-25T03:54:46;147.77;;;139.98;;
54641;SDS011;40536;53.194;5.728;2023-11-25T03:57:13;159.27;;;151.93;;
54641;SDS011;40536;53.194;5.728;2023-11-25T03:59:39;210.43;;;199.82;;
54641;SDS011;40536;53.194;5.728;2023-11-25T04:02:04;255.70;;;242.70;;
54641;SDS011;40536;53.194;5.728;2023-11-25T04:04:32;288.40;;;273.70;;
54641;SDS011;40536;53.194;5.728;2023-11-25T04:06:58;461.05;;;426.40;;
54641;SDS011;40536;53.194;5.728;2023-11-25T04:09:24;324.42;;;304.77;;
54641;SDS011;40536;53.194;5.728;2023-11-25T04:11:52;246.32;;;232.98;;
54641;SDS011;40536;53.194;5.728;2023-11-25T04:14:19;134.18;;;127.22;;
54641;SDS011;40536;53.194;5.728;2023-11-25T04:16:44;102.15;;;94.82;;
54641;SDS011;40536;53.194;5.728;2023-11-25T04:19:10;63.55;;;58.78;;
54641;SDS011;40536;53.194;5.728;2023-11-25T04:21:36;29.95;;;27.40;;
54641;SDS011;40536;53.194;5.728;2023-11-25T04:24:06;32.40;;;23.00;;
54641;SDS011;40536;53.194;5.728;2023-11-25T04:26:36;46.90;;;42.90;;
54641;SDS011;40536;53.194;5.728;2023-11-25T04:29:02;35.58;;;32.28;;
54641;SDS011;40536;53.194;5.728;2023-11-25T04:31:29;178.02;;;165.32;;
54641;SDS011;40536;53.194;5.728;2023-11-25T04:33:56;159.38;;;147.07;;
54641;SDS011;40536;53.194;5.728;2023-11-25T04:36:22;35.50;;;33.50;;
54641;SDS011;40536;53.194;5.728;2023-11-25T04:38:49;21.88;;;20.63;;
54641;SDS011;40536;53.194;5.728;2023-11-25T04:41:18;11.63;;;10.82;;
54641;SDS011;40536;53.194;5.728;2023-11-25T04:43:44;10.45;;;9.45;;
54641;SDS011;40536;53.194;5.728;2023-11-25T04:46:10;27.73;;;26.05;;
54641;SDS011;40536;53.194;5.728;2023-11-25T04:48:36;12.75;;;11.02;;
54641;SDS011;40536;53.194;5.728;2023-11-25T04:51:02;15.95;;;14.27;;
54641;SDS011;40536;53.194;5.728;2023-11-25T04:53:28;26.20;;;24.42;;
54641;SDS011;40536;53.194;5.728;2023-11-25T04:55:54;296.27;;;269.38;;
54641;SDS011;40536;53.194;5.728;2023-11-25T04:58:19;436.17;;;406.13;;
54641;SDS011;40536;53.194;5.728;2023-11-25T05:00:45;653.30;;;607.92;;
54641;SDS011;40536;53.194;5.728;2023-11-25T05:03:13;472.42;;;436.08;;
54641;SDS011;40536;53.194;5.728;2023-11-25T05:05:40;141.43;;;134.27;;
54641;SDS011;40536;53.194;5.728;2023-11-25T05:08:06;91.72;;;87.20;;
54641;SDS011;40536;53.194;5.728;2023-11-25T05:10:32;202.63;;;192.07;;
54641;SDS011;40536;53.194;5.728;2023-11-25T05:13:01;132.48;;;125.47;;
54641;SDS011;40536;53.194;5.728;2023-11-25T05:15:27;121.68;;;115.22;;
54641;SDS011;40536;53.194;5.728;2023-11-25T05:17:52;150.70;;;143.02;;
54641;SDS011;40536;53.194;5.728;2023-11-25T05:20:18;149.45;;;142.10;;
54641;SDS011;40536;53.194;5.728;2023-11-25T05:22:44;153.60;;;145.93;;
54641;SDS011;40536;53.194;5.728;2023-11-25T05:25:10;101.55;;;95.88;;
54641;SDS011;40536;53.194;5.728;2023-11-25T05:27:38;78.20;;;73.95;;
54641;SDS011;40536;53.194;5.728;2023-11-25T05:30:04;41.50;;;38.97;;
54641;SDS011;40536;53.194;5.728;2023-11-25T05:32:31;16.98;;;15.63;;
54641;SDS011;40536;53.194;5.728;2023-11-25T05:34:56;15.00;;;13.80;;
54641;SDS011;40536;53.194;5.728;2023-11-25T05:37:22;14.02;;;12.43;;
54641;SDS011;40536;53.194;5.728;2023-11-25T05:39:48;15.45;;;14.05;;
54641;SDS011;40536;53.194;5.728;2023-11-25T05:42:15;15.93;;;14.70;;
54641;SDS011;40536;53.194;5.728;2023-11-25T05:44:48;69.82;;;65.10;;
54641;SDS011;40536;53.194;5.728;2023-11-25T05:47:16;22.02;;;20.35;;
54641;SDS011;40536;53.194;5.728;2023-11-25T05:49:42;27.85;;;25.88;;
54641;SDS011;40536;53.194;5.728;2023-11-25T05:52:08;35.35;;;33.15;;
54641;SDS011;40536;53.194;5.728;2023-11-25T05:54:34;46.92;;;44.28;;
54641;SDS011;40536;53.194;5.728;2023-11-25T05:56:59;61.38;;;58.13;;
54641;SDS011;40536;53.194;5.728;2023-11-25T05:59:25;67.63;;;63.72;;
54641;SDS011;40536;53.194;5.728;2023-11-25T06:01:51;251.75;;;233.68;;
54641;SDS011;40536;53.194;5.728;2023-11-25T06:04:16;153.98;;;145.85;;
54641;SDS011;40536;53.194;5.728;2023-11-25T06:06:42;139.45;;;132.63;;
54641;SDS011;40536;53.194;5.728;2023-11-25T06:09:08;174.43;;;166.32;;
54641;SDS011;40536;53.194;5.728;2023-11-25T06:11:37;187.30;;;178.23;;
54641;SDS011;40536;53.194;5.728;2023-11-25T06:14:03;149.98;;;142.68;;
54641;SDS011;40536;53.194;5.728;2023-11-25T06:16:30;614.95;;;553.40;;
54641;SDS011;40536;53.194;5.728;2023-11-25T06:18:55;311.70;;;290.13;;
54641;SDS011;40536;53.194;5.728;2023-11-25T06:21:21;103.97;;;98.80;;
54641;SDS011;40536;53.194;5.728;2023-11-25T06:23:48;56.20;;;53.13;;
54641;SDS011;40536;53.194;5.728;2023-11-25T06:26:15;27.58;;;25.73;;
54641;SDS011;40536;53.194;5.728;2023-11-25T06:28:45;31.27;;;29.15;;
54641;SDS011;40536;53.194;5.728;2023-11-25T06:31:12;29.63;;;27.77;;
54641;SDS011;40536;53.194;5.728;2023-11-25T06:33:39;41.15;;;38.45;;
54641;SDS011;40536;53.194;5.728;2023-11-25T06:36:06;31.70;;;29.42;;
54641;SDS011;40536;53.194;5.728;2023-11-25T06:38:32;31.08;;;28.77;;
54641;SDS011;40536;53.194;5.728;2023-11-25T06:40:58;22.35;;;20.50;;
54641;SDS011;40536;53.194;5.728;2023-11-25T06:43:26;25.65;;;23.48;;
54641;SDS011;40536;53.194;5.728;2023-11-25T06:45:52;27.60;;;25.50;;
54641;SDS011;40536;53.194;5.728;2023-11-25T06:48:19;36.03;;;33.33;;
54641;SDS011;40536;53.194;5.728;2023-11-25T06:50:45;35.35;;;32.30;;
54641;SDS011;40536;53.194;5.728;2023-11-25T06:53:12;42.95;;;39.95;;
54641;SDS011;40536;53.194;5.728;2023-11-25T06:55:38;47.08;;;43.63;;
54641;SDS011;40536;53.194;5.728;2023-11-25T06:58:09;47.00;;;43.35;;
54641;SDS011;40536;53.194;5.728;2023-11-25T07:00:39;98.50;;;91.15;;
54641;SDS011;40536;53.194;5.728;2023-11-25T07:03:06;88.07;;;80.18;;
54641;SDS011;40536;53.194;5.728;2023-11-25T07:05:37;56.80;;;52.70;;
54641;SDS011;40536;53.194;5.728;2023-11-25T07:08:02;67.75;;;63.58;;
54641;SDS011;40536;53.194;5.728;2023-11-25T07:10:30;86.13;;;81.00;;
54641;SDS011;40536;53.194;5.728;2023-11-25T07:13:00;136.52;;;127.32;;
54641;SDS011;40536;53.194;5.728;2023-11-25T07:15:27;38.15;;;35.65;;
54641;SDS011;40536;53.194;5.728;2023-11-25T07:17:52;19.13;;;17.23;;
54641;SDS011;40536;53.194;5.728;2023-11-25T07:20:19;14.32;;;12.35;;
54641;SDS011;40536;53.194;5.728;2023-11-25T07:22:44;13.27;;;12.10;;
54641;SDS011;40536;53.194;5.728;2023-11-25T07:25:13;15.80;;;10.95;;
54641;SDS011;40536;53.194;5.728;2023-11-25T07:27:40;16.98;;;14.07;;
54641;SDS011;40536;53.194;5.728;2023-11-25T07:30:07;15.43;;;13.40;;
54641;SDS011;40536;53.194;5.728;2023-11-25T07:32:34;111.63;;;105.20;;
54641;SDS011;40536;53.194;5.728;2023-11-25T07:35:00;24.02;;;21.83;;
54641;SDS011;40536;53.194;5.728;2023-11-25T07:37:26;120.10;;;109.25;;
54641;SDS011;40536;53.194;5.728;2023-11-25T07:39:52;71.35;;;66.03;;
54641;SDS011;40536;53.194;5.728;2023-11-25T07:42:18;126.10;;;118.32;;
54641;SDS011;40536;53.194;5.728;2023-11-25T07:44:44;109.35;;;103.65;;
54641;SDS011;40536;53.194;5.728;2023-11-25T07:47:10;173.30;;;164.93;;
54641;SDS011;40536;53.194;5.728;2023-11-25T07:49:40;302.00;;;285.83;;
54641;SDS011;40536;53.194;5.728;2023-11-25T07:52:06;233.70;;;221.60;;
54641;SDS011;40536;53.194;5.728;2023-11-25T07:54:32;183.77;;;175.27;;
54641;SDS011;40536;53.194;5.728;2023-11-25T07:56:58;192.85;;;182.80;;
54641;SDS011;40536;53.194;5.728;2023-11-25T07:59:23;265.40;;;250.95;;
54641;SDS011;40536;53.194;5.728;2023-11-25T08:01:50;355.00;;;334.48;;
54641;SDS011;40536;53.194;5.728;2023-11-25T08:04:18;290.27;;;275.70;;
54641;SDS011;40536;53.194;5.728;2023-11-25T08:06:44;348.55;;;328.15;;
54641;SDS011;40536;53.194;5.728;2023-11-25T08:09:10;277.45;;;263.30;;
54641;SDS011;40536;53.194;5.728;2023-11-25T08:11:37;125.78;;;119.43;;
54641;SDS011;40536;53.194;5.728;2023-11-25T08:14:03;95.55;;;90.90;;
54641;SDS011;40536;53.194;5.728;2023-11-25T08:16:28;79.45;;;74.82;;
54641;SDS011;40536;53.194;5.728;2023-11-25T08:18:54;140.93;;;131.55;;
54641;SDS011;40536;53.194;5.728;2023-11-25T08:21:21;246.38;;;229.82;;
54641;SDS011;40536;53.194;5.728;2023-11-25T08:23:48;204.63;;;193.95;;
54641;SDS011;40536;53.194;5.728;2023-11-25T08:26:17;249.02;;;236.55;;
54641;SDS011;40536;53.194;5.728;2023-11-25T08:28:48;106.88;;;100.78;;
54641;SDS011;40536;53.194;5.728;2023-11-25T08:31:14;53.80;;;50.85;;
54641;SDS011;40536;53.194;5.728;2023-11-25T08:33:41;30.02;;;28.30;;
54641;SDS011;40536;53.194;5.728;2023-11-25T08:36:09;23.77;;;22.27;;
54641;SDS011;40536;53.194;5.728;2023-11-25T08:38:36;18.38;;;17.13;;
54641;SDS011;40536;53.194;5.728;2023-11-25T08:41:05;20.40;;;18.63;;
54641;SDS011;40536;53.194;5.728;2023-11-25T08:43:34;26.52;;;24.65;;
54641;SDS011;40536;53.194;5.728;2023-11-25T08:46:03;48.40;;;44.88;;
54641;SDS011;40536;53.194;5.728;2023-11-25T08:48:29;41.38;;;38.00;;
54641;SDS011;40536;53.194;5.728;2023-11-25T08:50:55;39.10;;;36.25;;
54641;SDS011;40536;53.194;5.728;2023-11-25T08:53:22;38.95;;;36.13;;
54641;SDS011;40536;53.194;5.728;2023-11-25T08:55:48;35.92;;;32.83;;
54641;SDS011;40536;53.194;5.728;2023-11-25T08:58:14;40.85;;;37.75;;
54641;SDS011;40536;53.194;5.728;2023-11-25T09:00:39;58.67;;;54.75;;
54641;SDS011;40536;53.194;5.728;2023-11-25T09:03:05;62.83;;;59.08;;
54641;SDS011;40536;53.194;5.728;2023-11-25T09:05:35;65.60;;;61.42;;
54641;SDS011;40536;53.194;5.728;2023-11-25T09:08:06;78.82;;;74.18;;
54641;SDS011;40536;53.194;5.728;2023-11-25T09:10:36;125.38;;;118.25;;
54641;SDS011;40536;53.194;5.728;2023-11-25T09:13:03;156.88;;;149.25;;
54641;SDS011;40536;53.194;5.728;2023-11-25T09:15:28;212.85;;;201.73;;
54641;SDS011;40536;53.194;5.728;2023-11-25T09:17:54;172.75;;;163.32;;
54641;SDS011;40536;53.194;5.728;2023-11-25T09:20:20;265.73;;;249.23;;
54641;SDS011;40536;53.194;5.728;2023-11-25T09:22:48;181.30;;;171.45;;
54641;SDS011;40536;53.194;5.728;2023-11-25T09:25:16;72.15;;;68.00;;
54641;SDS011;40536;53.194;5.728;2023-11-25T09:27:41;61.90;;;58.28;;
54641;SDS011;40536;53.194;5.728;2023-11-25T09:30:09;49.05;;;45.55;;
54641;SDS011;40536;53.194;5.728;2023-11-25T09:32:36;41.20;;;37.60;;
54641;SDS011;40536;53.194;5.728;2023-11-25T09:35:03;25.23;;;21.50;;
54641;SDS011;40536;53.194;5.728;2023-11-25T09:37:29;28.48;;;25.85;;
54641;SDS011;40536;53.194;5.728;2023-11-25T09:39:55;28.30;;;25.45;;
54641;SDS011;40536;53.194;5.728;2023-11-25T09:42:24;73.57;;;68.57;;
54641;SDS011;40536;53.194;5.728;2023-11-25T09:44:49;186.35;;;176.18;;
54641;SDS011;40536;53.194;5.728;2023-11-25T09:47:16;167.27;;;156.55;;
54641;SDS011;40536;53.194;5.728;2023-11-25T09:49:42;30.48;;;27.77;;
54641;SDS011;40536;53.194;5.728;2023-11-25T09:52:09;22.92;;;20.98;;
54641;SDS011;40536;53.194;5.728;2023-11-25T09:54:38;23.00;;;15.55;;
54641;SDS011;40536;53.194;5.728;2023-11-25T09:57:04;31.65;;;28.67;;
54641;SDS011;40536;53.194;5.728;2023-11-25T09:59:31;35.95;;;32.80;;
54641;SDS011;40536;53.194;5.728;2023-11-25T10:01:57;51.60;;;47.53;;
54641;SDS011;40536;53.194;5.728;2023-11-25T10:04:23;80.93;;;76.15;;
54641;SDS011;40536;53.194;5.728;2023-11-25T10:06:54;66.22;;;61.28;;
54641;SDS011;40536;53.194;5.728;2023-11-25T10:09:20;59.67;;;54.78;;
54641;SDS011;40536;53.194;5.728;2023-11-25T10:12:01;61.65;;;56.97;;
54641;SDS011;40536;53.194;5.728;2023-11-25T10:14:30;64.15;;;59.20;;
54641;SDS011;40536;53.194;5.728;2023-11-25T10:16:56;78.53;;;72.93;;
54641;SDS011;40536;53.194;5.728;2023-11-25T10:19:23;83.20;;;78.28;;
54641;SDS011;40536;53.194;5.728;2023-11-25T10:21:51;87.15;;;81.22;;
54641;SDS011;40536;53.194;5.728;2023-11-25T10:24:17;52.88;;;47.38;;
54641;SDS011;40536;53.194;5.728;2023-11-25T10:26:46;40.78;;;37.47;;
54641;SDS011;40536;53.194;5.728;2023-11-25T10:29:13;23.92;;;20.90;;
54641;SDS011;40536;53.194;5.728;2023-11-25T10:31:43;29.23;;;26.23;;
54641;SDS011;40536;53.194;5.728;2023-11-25T10:34:09;31.45;;;28.85;;
54641;SDS011;40536;53.194;5.728;2023-11-25T10:36:37;20.55;;;16.00;;
54641;SDS011;40536;53.194;5.728;2023-11-25T10:39:05;18.05;;;14.52;;
54641;SDS011;40536;53.194;5.728;2023-11-25T10:41:34;16.65;;;14.73;;
54641;SDS011;40536;53.194;5.728;2023-11-25T10:44:04;20.10;;;13.55;;
54641;SDS011;40536;53.194;5.728;2023-11-25T10:46:38;15.75;;;14.05;;
54641;SDS011;40536;53.194;5.728;2023-11-25T10:49:07;20.30;;;14.40;;
54641;SDS011;40536;53.194;5.728;2023-11-25T10:51:34;22.75;;;19.17;;
54641;SDS011;40536;53.194;5.728;2023-11-25T10:54:06;30.60;;;27.92;;
54641;SDS011;40536;53.194;5.728;2023-11-25T10:56:33;63.20;;;58.70;;
54641;SDS011;40536;53.194;5.728;2023-11-25T10:59:00;47.63;;;43.92;;
54641;SDS011;40536;53.194;5.728;2023-11-25T11:01:27;51.60;;;47.97;;
54641;SDS011;40536;53.194;5.728;2023-11-25T11:06:53;19.25;;;16.95;;
54641;SDS011;40536;53.194;5.728;2023-11-25T11:09:25;26.05;;;23.48;;
54641;SDS011;40536;53.194;5.728;2023-11-25T11:12:02;57.97;;;52.30;;
54641;SDS011;40536;53.194;5.728;2023-11-25T11:14:34;18.10;;;14.95;;
54641;SDS011;40536;53.194;5.728;2023-11-25T11:17:14;20.08;;;13.88;;
54641;SDS011;40536;53.194;5.728;2023-11-25T11:19:49;20.95;;;18.83;;
54641;SDS011;40536;53.194;5.728;2023-11-25T11:22:18;29.40;;;16.45;;
54641;SDS011;40536;53.194;5.728;2023-11-25T11:27:37;24.88;;;17.73;;
54641;SDS011;40536;53.194;5.728;2023-11-25T11:33:11;26.80;;;18.00;;
54641;SDS011;40536;53.194;5.728;2023-11-25T11:35:39;32.10;;;29.13;;
54641;SDS011;40536;53.194;5.728;2023-11-25T11:46:42;20.77;;;16.17;;
54641;SDS011;40536;53.194;5.728;2023-11-25T11:49:09;23.67;;;21.38;;
54641;SDS011;40536;53.194;5.728;2023-11-25T11:51:37;19.17;;;17.05;;
54641;SDS011;40536;53.194;5.728;2023-11-25T11:54:23;20.60;;;16.75;;
54641;SDS011;40536;53.194;5.728;2023-11-25T11:56:59;25.00;;;22.65;;
54641;SDS011;40536;53.194;5.728;2023-11-25T12:02:31;25.13;;;18.88;;
54641;SDS011;40536;53.194;5.728;2023-11-25T12:04:57;18.88;;;17.00;;
54641;SDS011;40536;53.194;5.728;2023-11-25T12:07:27;25.88;;;20.80;;
54641;SDS011;40536;53.194;5.728;2023-11-25T12:09:55;19.42;;;16.85;;
54641;SDS011;40536;53.194;5.728;2023-11-25T12:12:22;20.42;;;17.90;;
54641;SDS011;40536;53.194;5.728;2023-11-25T12:14:49;33.97;;;30.88;;
54641;SDS011;40536;53.194;5.728;2023-11-25T12:17:15;24.23;;;21.95;;
54641;SDS011;40536;53.194;5.728;2023-11-25T12:19:41;22.65;;;17.25;;
54641;SDS011;40536;53.194;5.728;2023-11-25T12:22:08;19.08;;;15.52;;
54641;SDS011;40536;53.194;5.728;2023-11-25T12:24:34;72.22;;;66.82;;
54641;SDS011;40536;53.194;5.728;2023-11-25T12:27:08;60.50;;;56.75;;
54641;SDS011;40536;53.194;5.728;2023-11-25T12:29:35;18.05;;;16.30;;
54641;SDS011;40536;53.194;5.728;2023-11-25T12:32:01;15.20;;;13.95;;
54641;SDS011;40536;53.194;5.728;2023-11-25T12:34:28;21.02;;;19.20;;
54641;SDS011;40536;53.194;5.728;2023-11-25T12:36:55;14.73;;;13.38;;
54641;SDS011;40536;53.194;5.728;2023-11-25T12:39:22;18.55;;;14.68;;
54641;SDS011;40536;53.194;5.728;2023-11-25T12:41:49;22.35;;;14.60;;
54641;SDS011;40536;53.194;5.728;2023-11-25T12:44:15;19.95;;;14.55;;
54641;SDS011;40536;53.194;5.728;2023-11-25T12:46:42;21.35;;;19.67;;
54641;SDS011;40536;53.194;5.728;2023-11-25T12:49:23;37.33;;;33.25;;
54641;SDS011;40536;53.194;5.728;2023-11-25T12:51:50;19.92;;;18.25;;
54641;SDS011;40536;53.194;5.728;2023-11-25T12:54:17;20.02;;;13.80;;
54641;SDS011;40536;53.194;5.728;2023-11-25T12:56:52;15.70;;;13.40;;
54641;SDS011;40536;53.194;5.728;2023-11-25T12:59:25;15.15;;;13.70;;
54641;SDS011;40536;53.194;5.728;2023-11-25T13:02:04;23.05;;;21.02;;
54641;SDS011;40536;53.194;5.728;2023-11-25T13:04:32;35.92;;;33.40;;
54641;SDS011;40536;53.194;5.728;2023-11-25T13:06:58;12.23;;;11.30;;
54641;SDS011;40536;53.194;5.728;2023-11-25T13:09:28;12.38;;;11.32;;
54641;SDS011;40536;53.194;5.728;2023-11-25T13:11:55;11.65;;;9.93;;
54641;SDS011;40536;53.194;5.728;2023-11-25T13:14:21;9.90;;;8.90;;
54641;SDS011;40536;53.194;5.728;2023-11-25T13:16:47;12.23;;;10.07;;
54641;SDS011;40536;53.194;5.728;2023-11-25T13:19:13;11.80;;;10.73;;
54641;SDS011;40536;53.194;5.728;2023-11-25T13:21:39;14.88;;;13.20;;
54641;SDS011;40536;53.194;5.728;2023-11-25T13:24:11;16.10;;;11.18;;
54641;SDS011;40536;53.194;5.728;2023-11-25T13:26:36;19.55;;;17.98;;
54641;SDS011;40536;53.194;5.728;2023-11-25T13:29:02;28.70;;;26.38;;
54641;SDS011;40536;53.194;5.728;2023-11-25T13:31:29;22.48;;;20.10;;
54641;SDS011;40536;53.194;5.728;2023-11-25T13:33:55;20.10;;;15.05;;
54641;SDS011;40536;53.194;5.728;2023-11-25T13:36:20;45.80;;;42.67;;
54641;SDS011;40536;53.194;5.728;2023-11-25T13:38:46;53.05;;;49.65;;
54641;SDS011;40536;53.194;5.728;2023-11-25T13:41:12;46.50;;;43.58;;
54641;SDS011;40536;53.194;5.728;2023-11-25T13:43:37;44.90;;;42.38;;
54641;SDS011;40536;53.194;5.728;2023-11-25T13:46:03;34.03;;;31.45;;
54641;SDS011;40536;53.194;5.728;2023-11-25T13:48:29;30.75;;;28.95;;
54641;SDS011;40536;53.194;5.728;2023-11-25T13:50:55;17.45;;;16.15;;
54641;SDS011;40536;53.194;5.728;2023-11-25T13:53:20;16.25;;;14.27;;
54641;SDS011;40536;53.194;5.728;2023-11-25T13:55:46;15.73;;;14.25;;
54641;SDS011;40536;53.194;5.728;2023-11-25T13:58:13;15.52;;;14.00;;
54641;SDS011;40536;53.194;5.728;2023-11-25T14:00:42;22.23;;;15.25;;
54641;SDS011;40536;53.194;5.728;2023-11-25T14:03:08;18.23;;;17.13;;
54641;SDS011;40536;53.194;5.728;2023-11-25T14:05:38;18.33;;;16.55;;
54641;SDS011;40536;53.194;5.728;2023-11-25T14:08:08;16.45;;;15.27;;
54641;SDS011;40536;53.194;5.728;2023-11-25T14:10:36;12.68;;;11.63;;
54641;SDS011;40536;53.194;5.728;2023-11-25T14:13:03;13.02;;;11.80;;
54641;SDS011;40536;53.194;5.728;2023-11-25T14:15:31;13.40;;;12.15;;
54641;SDS011;40536;53.194;5.728;2023-11-25T14:17:58;12.23;;;11.20;;
54641;SDS011;40536;53.194;5.728;2023-11-25T14:20:24;13.20;;;12.05;;
54641;SDS011;40536;53.194;5.728;2023-11-25T14:22:50;12.20;;;11.13;;
54641;SDS011;40536;53.194;5.728;2023-11-25T14:25:16;11.90;;;10.70;;
54641;SDS011;40536;53.194;5.728;2023-11-25T14:27:44;13.85;;;12.60;;
54641;SDS011;40536;53.194;5.728;2023-11-25T14:30:11;18.75;;;17.55;;
54641;SDS011;40536;53.194;5.728;2023-11-25T14:32:38;27.40;;;25.58;;
54641;SDS011;40536;53.194;5.728;2023-11-25T14:35:04;17.55;;;16.48;;
54641;SDS011;40536;53.194;5.728;2023-11-25T14:37:34;22.20;;;20.80;;
54641;SDS011;40536;53.194;5.728;2023-11-25T14:40:03;31.52;;;29.73;;